sensor_id;sensor_type;location;lat;lon;timestamp;P1;durP1;ratioP1;P2;durP2;ratioP2
43580;SDS011;29175;51.030;4.606;2022-12-29T00:00:50;5.65;;;2.05;;
43580;SDS011;29175;51.030;4.606;2022-12-29T00:03:16;3.15;;;1.90;;
43580;SDS011;29175;51.030;4.606;2022-12-29T00:05:42;4.80;;;1.98;;
43580;SDS011;29175;51.030;4.606;2022-12-29T00:08:08;3.08;;;2.10;;
43580;SDS011;29175;51.030;4.606;2022-12-29T00:10:33;7.78;;;2.20;;
43580;SDS011;29175;51.030;4.606;2022-12-29T00:13:00;2.88;;;1.80;;
43580;SDS011;29175;51.030;4.606;2022-12-29T00:15:44;6.03;;;1.98;;
43580;SDS011;29175;51.030;4.606;2022-12-29T00:18:10;1.95;;;1.73;;
43580;SDS011;29175;51.030;4.606;2022-12-29T00:20:37;2.20;;;1.58;;
43580;SDS011;29175;51.030;4.606;2022-12-29T00:23:21;3.85;;;1.75;;
43580;SDS011;29175;51.030;4.606;2022-12-29T00:26:09;4.00;;;1.83;;
43580;SDS011;29175;51.030;4.606;2022-12-29T00:28:59;2.58;;;2.05;;
43580;SDS011;29175;51.030;4.606;2022-12-29T00:31:44;7.55;;;1.80;;
43580;SDS011;29175;51.030;4.606;2022-12-29T00:34:28;4.10;;;1.38;;
43580;SDS011;29175;51.030;4.606;2022-12-29T00:37:12;4.20;;;1.70;;
43580;SDS011;29175;51.030;4.606;2022-12-29T00:39:38;3.78;;;1.65;;
43580;SDS011;29175;51.030;4.606;2022-12-29T00:42:22;4.25;;;1.88;;
43580;SDS011;29175;51.030;4.606;2022-12-29T00:45:06;6.75;;;1.80;;
43580;SDS011;29175;51.030;4.606;2022-12-29T00:47:31;3.20;;;1.67;;
43580;SDS011;29175;51.030;4.606;2022-12-29T00:49:57;3.83;;;1.65;;
43580;SDS011;29175;51.030;4.606;2022-12-29T00:52:23;4.25;;;1.70;;
43580;SDS011;29175;51.030;4.606;2022-12-29T00:54:48;1.85;;;1.40;;
43580;SDS011;29175;51.030;4.606;2022-12-29T00:57:14;5.35;;;1.58;;
43580;SDS011;29175;51.030;4.606;2022-12-29T00:59:40;2.75;;;1.50;;
43580;SDS011;29175;51.030;4.606;2022-12-29T01:02:07;4.00;;;1.42;;
43580;SDS011;29175;51.030;4.606;2022-12-29T01:04:34;3.28;;;1.60;;
43580;SDS011;29175;51.030;4.606;2022-12-29T01:07:00;9.10;;;2.15;;
43580;SDS011;29175;51.030;4.606;2022-12-29T01:09:26;4.40;;;1.50;;
43580;SDS011;29175;51.030;4.606;2022-12-29T01:12:10;5.63;;;1.67;;
43580;SDS011;29175;51.030;4.606;2022-12-29T01:14:36;11.75;;;1.83;;
43580;SDS011;29175;51.030;4.606;2022-12-29T01:17:02;2.88;;;1.60;;
43580;SDS011;29175;51.030;4.606;2022-12-29T01:19:29;10.68;;;1.63;;
43580;SDS011;29175;51.030;4.606;2022-12-29T01:21:55;11.95;;;1.70;;
43580;SDS011;29175;51.030;4.606;2022-12-29T01:24:20;2.72;;;1.70;;
43580;SDS011;29175;51.030;4.606;2022-12-29T01:26:47;6.13;;;1.50;;
43580;SDS011;29175;51.030;4.606;2022-12-29T01:29:13;4.65;;;1.70;;
43580;SDS011;29175;51.030;4.606;2022-12-29T01:31:39;7.43;;;1.67;;
43580;SDS011;29175;51.030;4.606;2022-12-29T01:34:05;5.50;;;1.60;;
43580;SDS011;29175;51.030;4.606;2022-12-29T01:36:31;5.15;;;1.60;;
43580;SDS011;29175;51.030;4.606;2022-12-29T01:38:57;7.18;;;1.60;;
43580;SDS011;29175;51.030;4.606;2022-12-29T01:41:22;2.97;;;1.50;;
43580;SDS011;29175;51.030;4.606;2022-12-29T01:43:50;3.08;;;1.50;;
43580;SDS011;29175;51.030;4.606;2022-12-29T01:48:51;3.95;;;1.60;;
43580;SDS011;29175;51.030;4.606;2022-12-29T01:51:21;3.33;;;1.40;;
43580;SDS011;29175;51.030;4.606;2022-12-29T01:53:50;3.95;;;1.38;;
43580;SDS011;29175;51.030;4.606;2022-12-29T01:56:17;6.55;;;1.85;;
43580;SDS011;29175;51.030;4.606;2022-12-29T01:58:46;4.55;;;1.45;;
43580;SDS011;29175;51.030;4.606;2022-12-29T02:01:19;4.95;;;1.50;;
43580;SDS011;29175;51.030;4.606;2022-12-29T02:03:46;2.33;;;1.55;;
43580;SDS011;29175;51.030;4.606;2022-12-29T02:06:21;3.95;;;1.48;;
43580;SDS011;29175;51.030;4.606;2022-12-29T02:08:50;4.25;;;1.63;;
43580;SDS011;29175;51.030;4.606;2022-12-29T02:11:19;2.83;;;1.60;;
43580;SDS011;29175;51.030;4.606;2022-12-29T02:13:46;1.70;;;1.20;;
43580;SDS011;29175;51.030;4.606;2022-12-29T02:22:00;4.18;;;1.48;;
43580;SDS011;29175;51.030;4.606;2022-12-29T02:28:01;2.33;;;1.23;;
43580;SDS011;29175;51.030;4.606;2022-12-29T02:33:25;4.28;;;1.48;;
43580;SDS011;29175;51.030;4.606;2022-12-29T02:38:38;3.65;;;2.13;;
43580;SDS011;29175;51.030;4.606;2022-12-29T02:41:32;6.22;;;1.75;;
43580;SDS011;29175;51.030;4.606;2022-12-29T02:44:16;2.53;;;1.27;;
43580;SDS011;29175;51.030;4.606;2022-12-29T02:49:20;5.75;;;1.63;;
43580;SDS011;29175;51.030;4.606;2022-12-29T02:52:04;7.65;;;1.73;;
43580;SDS011;29175;51.030;4.606;2022-12-29T02:54:39;5.63;;;1.60;;
43580;SDS011;29175;51.030;4.606;2022-12-29T02:57:12;3.38;;;1.65;;
43580;SDS011;29175;51.030;4.606;2022-12-29T02:59:44;8.65;;;1.80;;
43580;SDS011;29175;51.030;4.606;2022-12-29T03:16:12;5.45;;;1.40;;
43580;SDS011;29175;51.030;4.606;2022-12-29T03:24:50;6.95;;;1.80;;
43580;SDS011;29175;51.030;4.606;2022-12-29T03:27:29;13.57;;;1.75;;
43580;SDS011;29175;51.030;4.606;2022-12-29T03:30:00;6.22;;;1.73;;
43580;SDS011;29175;51.030;4.606;2022-12-29T03:32:31;6.90;;;1.70;;
43580;SDS011;29175;51.030;4.606;2022-12-29T03:35:05;6.28;;;1.92;;
43580;SDS011;29175;51.030;4.606;2022-12-29T03:37:37;10.60;;;1.88;;
43580;SDS011;29175;51.030;4.606;2022-12-29T03:40:07;5.75;;;2.08;;
43580;SDS011;29175;51.030;4.606;2022-12-29T03:42:34;4.80;;;2.20;;
43580;SDS011;29175;51.030;4.606;2022-12-29T03:45:01;14.75;;;3.10;;
43580;SDS011;29175;51.030;4.606;2022-12-29T03:47:29;10.05;;;2.67;;
43580;SDS011;29175;51.030;4.606;2022-12-29T03:49:54;5.55;;;2.35;;
43580;SDS011;29175;51.030;4.606;2022-12-29T03:52:20;8.77;;;2.00;;
43580;SDS011;29175;51.030;4.606;2022-12-29T03:54:46;15.60;;;2.40;;
43580;SDS011;29175;51.030;4.606;2022-12-29T03:57:13;6.25;;;1.98;;
43580;SDS011;29175;51.030;4.606;2022-12-29T03:59:38;7.03;;;2.13;;
43580;SDS011;29175;51.030;4.606;2022-12-29T04:02:05;4.45;;;1.77;;
43580;SDS011;29175;51.030;4.606;2022-12-29T04:04:31;5.82;;;1.30;;
43580;SDS011;29175;51.030;4.606;2022-12-29T04:06:56;4.60;;;1.60;;
43580;SDS011;29175;51.030;4.606;2022-12-29T04:09:22;4.10;;;1.85;;
43580;SDS011;29175;51.030;4.606;2022-12-29T04:11:48;4.22;;;1.40;;
43580;SDS011;29175;51.030;4.606;2022-12-29T04:14:13;8.05;;;1.80;;
43580;SDS011;29175;51.030;4.606;2022-12-29T04:16:39;2.58;;;1.65;;
43580;SDS011;29175;51.030;4.606;2022-12-29T04:19:05;4.97;;;1.60;;
43580;SDS011;29175;51.030;4.606;2022-12-29T04:21:32;5.13;;;1.90;;
43580;SDS011;29175;51.030;4.606;2022-12-29T04:23:59;7.13;;;1.70;;
43580;SDS011;29175;51.030;4.606;2022-12-29T04:26:25;7.28;;;1.60;;
43580;SDS011;29175;51.030;4.606;2022-12-29T04:28:50;8.20;;;1.60;;
43580;SDS011;29175;51.030;4.606;2022-12-29T04:31:16;4.70;;;1.65;;
43580;SDS011;29175;51.030;4.606;2022-12-29T04:33:42;6.75;;;1.90;;
43580;SDS011;29175;51.030;4.606;2022-12-29T04:36:08;5.75;;;1.73;;
43580;SDS011;29175;51.030;4.606;2022-12-29T04:38:34;7.28;;;2.00;;
43580;SDS011;29175;51.030;4.606;2022-12-29T04:41:01;5.65;;;1.60;;
43580;SDS011;29175;51.030;4.606;2022-12-29T04:43:27;3.40;;;1.75;;
43580;SDS011;29175;51.030;4.606;2022-12-29T04:45:53;6.90;;;2.13;;
43580;SDS011;29175;51.030;4.606;2022-12-29T04:48:19;8.68;;;2.22;;
43580;SDS011;29175;51.030;4.606;2022-12-29T04:50:46;5.90;;;2.17;;
43580;SDS011;29175;51.030;4.606;2022-12-29T04:53:13;10.07;;;1.83;;
43580;SDS011;29175;51.030;4.606;2022-12-29T04:58:08;8.75;;;1.85;;
43580;SDS011;29175;51.030;4.606;2022-12-29T05:00:34;3.13;;;1.60;;
43580;SDS011;29175;51.030;4.606;2022-12-29T05:02:59;7.68;;;2.05;;
43580;SDS011;29175;51.030;4.606;2022-12-29T05:05:25;5.38;;;1.55;;
43580;SDS011;29175;51.030;4.606;2022-12-29T05:07:51;3.08;;;1.67;;
43580;SDS011;29175;51.030;4.606;2022-12-29T05:10:16;7.30;;;2.22;;
43580;SDS011;29175;51.030;4.606;2022-12-29T05:12:42;6.20;;;1.90;;
43580;SDS011;29175;51.030;4.606;2022-12-29T05:15:08;5.65;;;1.70;;
43580;SDS011;29175;51.030;4.606;2022-12-29T05:17:35;6.07;;;1.70;;
43580;SDS011;29175;51.030;4.606;2022-12-29T05:20:01;6.78;;;1.88;;
43580;SDS011;29175;51.030;4.606;2022-12-29T05:22:27;6.32;;;1.63;;
43580;SDS011;29175;51.030;4.606;2022-12-29T05:24:53;8.35;;;1.92;;
43580;SDS011;29175;51.030;4.606;2022-12-29T05:27:19;8.32;;;2.00;;
43580;SDS011;29175;51.030;4.606;2022-12-29T05:29:45;4.60;;;2.00;;
43580;SDS011;29175;51.030;4.606;2022-12-29T05:32:10;5.72;;;2.58;;
43580;SDS011;29175;51.030;4.606;2022-12-29T05:34:36;9.20;;;1.60;;
43580;SDS011;29175;51.030;4.606;2022-12-29T05:37:02;6.38;;;2.25;;
43580;SDS011;29175;51.030;4.606;2022-12-29T05:39:28;9.50;;;2.35;;
43580;SDS011;29175;51.030;4.606;2022-12-29T05:41:54;9.63;;;2.00;;
43580;SDS011;29175;51.030;4.606;2022-12-29T05:44:19;8.20;;;2.20;;
43580;SDS011;29175;51.030;4.606;2022-12-29T05:46:45;8.07;;;2.28;;
43580;SDS011;29175;51.030;4.606;2022-12-29T05:49:11;5.78;;;1.92;;
43580;SDS011;29175;51.030;4.606;2022-12-29T05:51:36;10.10;;;2.35;;
43580;SDS011;29175;51.030;4.606;2022-12-29T05:54:02;8.10;;;2.35;;
43580;SDS011;29175;51.030;4.606;2022-12-29T05:56:28;7.65;;;2.63;;
43580;SDS011;29175;51.030;4.606;2022-12-29T05:58:53;8.90;;;2.20;;
43580;SDS011;29175;51.030;4.606;2022-12-29T06:01:19;11.05;;;2.78;;
43580;SDS011;29175;51.030;4.606;2022-12-29T06:03:45;12.52;;;2.42;;
43580;SDS011;29175;51.030;4.606;2022-12-29T06:06:10;7.80;;;2.50;;
43580;SDS011;29175;51.030;4.606;2022-12-29T06:08:36;9.70;;;2.42;;
43580;SDS011;29175;51.030;4.606;2022-12-29T06:11:02;8.82;;;2.65;;
43580;SDS011;29175;51.030;4.606;2022-12-29T06:13:28;12.70;;;2.97;;
43580;SDS011;29175;51.030;4.606;2022-12-29T06:15:53;11.52;;;3.08;;
43580;SDS011;29175;51.030;4.606;2022-12-29T06:18:19;11.43;;;2.72;;
43580;SDS011;29175;51.030;4.606;2022-12-29T06:20:45;7.57;;;2.47;;
43580;SDS011;29175;51.030;4.606;2022-12-29T06:23:10;15.52;;;2.42;;
43580;SDS011;29175;51.030;4.606;2022-12-29T06:25:38;13.02;;;2.60;;
43580;SDS011;29175;51.030;4.606;2022-12-29T06:28:04;12.88;;;3.28;;
43580;SDS011;29175;51.030;4.606;2022-12-29T06:30:33;12.27;;;2.17;;
43580;SDS011;29175;51.030;4.606;2022-12-29T06:32:59;5.60;;;2.13;;
43580;SDS011;29175;51.030;4.606;2022-12-29T06:35:24;12.10;;;2.85;;
43580;SDS011;29175;51.030;4.606;2022-12-29T06:37:50;13.43;;;2.60;;
43580;SDS011;29175;51.030;4.606;2022-12-29T06:40:17;11.93;;;2.75;;
43580;SDS011;29175;51.030;4.606;2022-12-29T06:42:42;12.18;;;2.60;;
43580;SDS011;29175;51.030;4.606;2022-12-29T06:45:08;8.70;;;2.40;;
43580;SDS011;29175;51.030;4.606;2022-12-29T06:47:35;8.70;;;2.50;;
43580;SDS011;29175;51.030;4.606;2022-12-29T06:50:01;9.35;;;2.65;;
43580;SDS011;29175;51.030;4.606;2022-12-29T06:52:27;10.50;;;2.67;;
43580;SDS011;29175;51.030;4.606;2022-12-29T06:54:53;12.63;;;2.88;;
43580;SDS011;29175;51.030;4.606;2022-12-29T06:57:20;11.40;;;2.58;;
43580;SDS011;29175;51.030;4.606;2022-12-29T06:59:46;11.25;;;2.53;;
43580;SDS011;29175;51.030;4.606;2022-12-29T07:02:12;7.22;;;2.60;;
43580;SDS011;29175;51.030;4.606;2022-12-29T07:04:43;12.05;;;2.55;;
43580;SDS011;29175;51.030;4.606;2022-12-29T07:07:08;12.23;;;2.75;;
43580;SDS011;29175;51.030;4.606;2022-12-29T07:09:34;10.30;;;2.67;;
43580;SDS011;29175;51.030;4.606;2022-12-29T07:12:02;6.80;;;2.78;;
43580;SDS011;29175;51.030;4.606;2022-12-29T07:14:28;13.10;;;2.45;;
43580;SDS011;29175;51.030;4.606;2022-12-29T07:16:53;6.78;;;2.65;;
43580;SDS011;29175;51.030;4.606;2022-12-29T07:19:19;16.70;;;3.30;;
43580;SDS011;29175;51.030;4.606;2022-12-29T07:21:45;6.90;;;1.92;;
43580;SDS011;29175;51.030;4.606;2022-12-29T07:24:10;13.65;;;2.88;;
43580;SDS011;29175;51.030;4.606;2022-12-29T07:26:36;15.57;;;2.70;;
43580;SDS011;29175;51.030;4.606;2022-12-29T07:29:03;7.88;;;2.30;;
43580;SDS011;29175;51.030;4.606;2022-12-29T07:31:30;14.32;;;2.83;;
43580;SDS011;29175;51.030;4.606;2022-12-29T07:33:56;8.50;;;2.42;;
43580;SDS011;29175;51.030;4.606;2022-12-29T07:36:22;13.07;;;2.70;;
43580;SDS011;29175;51.030;4.606;2022-12-29T07:38:48;11.27;;;2.65;;
43580;SDS011;29175;51.030;4.606;2022-12-29T07:41:15;13.15;;;3.10;;
43580;SDS011;29175;51.030;4.606;2022-12-29T07:43:41;11.18;;;3.13;;
43580;SDS011;29175;51.030;4.606;2022-12-29T07:46:06;14.60;;;2.83;;
43580;SDS011;29175;51.030;4.606;2022-12-29T07:48:33;10.65;;;2.50;;
43580;SDS011;29175;51.030;4.606;2022-12-29T07:51:01;7.88;;;2.83;;
43580;SDS011;29175;51.030;4.606;2022-12-29T07:53:28;14.27;;;2.70;;
43580;SDS011;29175;51.030;4.606;2022-12-29T07:55:53;14.75;;;2.88;;
43580;SDS011;29175;51.030;4.606;2022-12-29T07:58:19;10.88;;;2.80;;
43580;SDS011;29175;51.030;4.606;2022-12-29T08:00:45;12.65;;;2.53;;
43580;SDS011;29175;51.030;4.606;2022-12-29T08:03:11;7.55;;;2.53;;
43580;SDS011;29175;51.030;4.606;2022-12-29T08:05:36;15.00;;;2.85;;
43580;SDS011;29175;51.030;4.606;2022-12-29T08:08:02;5.50;;;2.63;;
43580;SDS011;29175;51.030;4.606;2022-12-29T08:10:28;17.00;;;3.05;;
43580;SDS011;29175;51.030;4.606;2022-12-29T08:12:54;13.50;;;3.13;;
43580;SDS011;29175;51.030;4.606;2022-12-29T08:15:20;9.40;;;2.72;;
43580;SDS011;29175;51.030;4.606;2022-12-29T08:17:46;11.50;;;2.13;;
43580;SDS011;29175;51.030;4.606;2022-12-29T08:20:12;11.00;;;3.20;;
43580;SDS011;29175;51.030;4.606;2022-12-29T08:22:37;18.33;;;3.42;;
43580;SDS011;29175;51.030;4.606;2022-12-29T08:25:03;13.20;;;3.20;;
43580;SDS011;29175;51.030;4.606;2022-12-29T08:27:29;17.05;;;3.75;;
43580;SDS011;29175;51.030;4.606;2022-12-29T08:29:55;9.82;;;2.80;;
43580;SDS011;29175;51.030;4.606;2022-12-29T08:32:21;14.10;;;3.60;;
43580;SDS011;29175;51.030;4.606;2022-12-29T08:34:46;17.10;;;2.72;;
43580;SDS011;29175;51.030;4.606;2022-12-29T08:37:12;21.98;;;3.03;;
43580;SDS011;29175;51.030;4.606;2022-12-29T08:39:38;13.50;;;3.20;;
43580;SDS011;29175;51.030;4.606;2022-12-29T08:42:04;11.93;;;2.92;;
43580;SDS011;29175;51.030;4.606;2022-12-29T08:44:29;14.65;;;2.90;;
43580;SDS011;29175;51.030;4.606;2022-12-29T08:46:55;9.68;;;2.53;;
43580;SDS011;29175;51.030;4.606;2022-12-29T08:49:20;16.30;;;2.97;;
43580;SDS011;29175;51.030;4.606;2022-12-29T08:51:46;17.50;;;3.28;;
43580;SDS011;29175;51.030;4.606;2022-12-29T08:54:12;8.80;;;2.88;;
43580;SDS011;29175;51.030;4.606;2022-12-29T08:56:39;17.75;;;2.78;;
43580;SDS011;29175;51.030;4.606;2022-12-29T08:59:04;14.10;;;2.88;;
43580;SDS011;29175;51.030;4.606;2022-12-29T09:01:30;12.23;;;3.45;;
43580;SDS011;29175;51.030;4.606;2022-12-29T09:03:56;10.52;;;2.72;;
43580;SDS011;29175;51.030;4.606;2022-12-29T09:06:21;13.82;;;3.47;;
43580;SDS011;29175;51.030;4.606;2022-12-29T09:08:47;13.32;;;3.25;;
43580;SDS011;29175;51.030;4.606;2022-12-29T09:11:15;14.35;;;3.50;;
43580;SDS011;29175;51.030;4.606;2022-12-29T09:13:42;16.88;;;3.30;;
43580;SDS011;29175;51.030;4.606;2022-12-29T09:16:08;12.18;;;3.13;;
43580;SDS011;29175;51.030;4.606;2022-12-29T09:18:35;23.90;;;3.20;;
43580;SDS011;29175;51.030;4.606;2022-12-29T09:21:02;11.30;;;3.10;;
43580;SDS011;29175;51.030;4.606;2022-12-29T09:23:29;15.60;;;2.90;;
43580;SDS011;29175;51.030;4.606;2022-12-29T09:25:55;13.35;;;3.22;;
43580;SDS011;29175;51.030;4.606;2022-12-29T09:28:21;15.25;;;2.67;;
43580;SDS011;29175;51.030;4.606;2022-12-29T09:30:48;10.77;;;3.08;;
43580;SDS011;29175;51.030;4.606;2022-12-29T09:33:14;11.27;;;3.08;;
43580;SDS011;29175;51.030;4.606;2022-12-29T09:35:41;11.05;;;2.83;;
43580;SDS011;29175;51.030;4.606;2022-12-29T09:38:08;11.63;;;3.03;;
43580;SDS011;29175;51.030;4.606;2022-12-29T09:40:34;18.40;;;2.95;;
43580;SDS011;29175;51.030;4.606;2022-12-29T09:48:49;19.63;;;3.47;;
43580;SDS011;29175;51.030;4.606;2022-12-29T09:51:39;10.65;;;3.55;;
43580;SDS011;29175;51.030;4.606;2022-12-29T09:54:56;14.52;;;3.40;;
43580;SDS011;29175;51.030;4.606;2022-12-29T09:57:01;12.15;;;3.58;;
43580;SDS011;29175;51.030;4.606;2022-12-29T09:59:35;12.07;;;3.08;;
43580;SDS011;29175;51.030;4.606;2022-12-29T10:04:46;19.02;;;3.90;;
43580;SDS011;29175;51.030;4.606;2022-12-29T10:07:36;12.13;;;3.00;;
43580;SDS011;29175;51.030;4.606;2022-12-29T10:15:46;15.85;;;3.58;;
43580;SDS011;29175;51.030;4.606;2022-12-29T10:21:17;17.20;;;3.30;;
43580;SDS011;29175;51.030;4.606;2022-12-29T10:23:46;12.93;;;3.30;;
43580;SDS011;29175;51.030;4.606;2022-12-29T10:28:45;17.45;;;3.63;;
43580;SDS011;29175;51.030;4.606;2022-12-29T10:31:22;21.88;;;3.67;;
43580;SDS011;29175;51.030;4.606;2022-12-29T10:33:54;11.27;;;3.10;;
43580;SDS011;29175;51.030;4.606;2022-12-29T10:36:26;13.68;;;3.20;;
43580;SDS011;29175;51.030;4.606;2022-12-29T10:44:27;19.25;;;3.30;;
43580;SDS011;29175;51.030;4.606;2022-12-29T10:46:57;10.93;;;3.47;;
43580;SDS011;29175;51.030;4.606;2022-12-29T10:49:27;12.52;;;3.40;;
43580;SDS011;29175;51.030;4.606;2022-12-29T10:51:55;17.30;;;3.38;;
43580;SDS011;29175;51.030;4.606;2022-12-29T10:57:03;10.32;;;3.05;;
43580;SDS011;29175;51.030;4.606;2022-12-29T10:59:35;23.20;;;4.03;;
43580;SDS011;29175;51.030;4.606;2022-12-29T11:05:06;17.98;;;3.30;;
43580;SDS011;29175;51.030;4.606;2022-12-29T11:07:58;16.65;;;3.25;;
43580;SDS011;29175;51.030;4.606;2022-12-29T11:10:45;10.93;;;3.72;;
43580;SDS011;29175;51.030;4.606;2022-12-29T11:15:43;16.58;;;3.95;;
43580;SDS011;29175;51.030;4.606;2022-12-29T11:20:57;14.65;;;3.88;;
43580;SDS011;29175;51.030;4.606;2022-12-29T11:23:29;20.00;;;3.80;;
43580;SDS011;29175;51.030;4.606;2022-12-29T11:26:14;15.98;;;3.40;;
43580;SDS011;29175;51.030;4.606;2022-12-29T11:29:14;19.15;;;3.95;;
43580;SDS011;29175;51.030;4.606;2022-12-29T11:31:50;17.23;;;3.35;;
43580;SDS011;29175;51.030;4.606;2022-12-29T11:37:00;14.18;;;3.22;;
43580;SDS011;29175;51.030;4.606;2022-12-29T11:42:19;18.75;;;3.63;;
43580;SDS011;29175;51.030;4.606;2022-12-29T11:44:48;14.10;;;3.42;;
43580;SDS011;29175;51.030;4.606;2022-12-29T11:47:23;16.38;;;3.13;;
43580;SDS011;29175;51.030;4.606;2022-12-29T11:50:04;15.15;;;3.78;;
43580;SDS011;29175;51.030;4.606;2022-12-29T11:52:35;18.08;;;3.58;;
43580;SDS011;29175;51.030;4.606;2022-12-29T11:55:05;15.48;;;4.10;;
43580;SDS011;29175;51.030;4.606;2022-12-29T11:57:41;15.18;;;2.78;;
43580;SDS011;29175;51.030;4.606;2022-12-29T12:00:14;15.65;;;3.42;;
43580;SDS011;29175;51.030;4.606;2022-12-29T12:02:45;13.32;;;3.78;;
43580;SDS011;29175;51.030;4.606;2022-12-29T12:07:46;14.27;;;3.80;;
43580;SDS011;29175;51.030;4.606;2022-12-29T12:10:19;23.73;;;5.13;;
43580;SDS011;29175;51.030;4.606;2022-12-29T12:16:06;13.98;;;3.75;;
43580;SDS011;29175;51.030;4.606;2022-12-29T12:18:39;11.45;;;3.40;;
43580;SDS011;29175;51.030;4.606;2022-12-29T12:21:39;9.23;;;3.10;;
43580;SDS011;29175;51.030;4.606;2022-12-29T12:24:22;14.38;;;3.17;;
43580;SDS011;29175;51.030;4.606;2022-12-29T12:29:33;13.10;;;3.50;;
43580;SDS011;29175;51.030;4.606;2022-12-29T12:32:22;13.13;;;3.50;;
43580;SDS011;29175;51.030;4.606;2022-12-29T12:34:54;14.68;;;3.95;;
43580;SDS011;29175;51.030;4.606;2022-12-29T12:37:25;18.15;;;4.50;;
43580;SDS011;29175;51.030;4.606;2022-12-29T12:45:39;11.43;;;3.72;;
43580;SDS011;29175;51.030;4.606;2022-12-29T12:48:23;10.20;;;3.72;;
43580;SDS011;29175;51.030;4.606;2022-12-29T12:51:09;20.55;;;3.95;;
43580;SDS011;29175;51.030;4.606;2022-12-29T12:53:41;12.60;;;2.67;;
43580;SDS011;29175;51.030;4.606;2022-12-29T12:56:27;14.77;;;4.43;;
43580;SDS011;29175;51.030;4.606;2022-12-29T13:01:38;10.35;;;3.13;;
43580;SDS011;29175;51.030;4.606;2022-12-29T13:07:03;13.93;;;3.42;;
43580;SDS011;29175;51.030;4.606;2022-12-29T13:18:24;15.13;;;3.97;;
43580;SDS011;29175;51.030;4.606;2022-12-29T13:23:49;15.40;;;3.50;;
43580;SDS011;29175;51.030;4.606;2022-12-29T13:26:32;19.60;;;3.70;;
43580;SDS011;29175;51.030;4.606;2022-12-29T13:29:18;15.98;;;3.78;;
43580;SDS011;29175;51.030;4.606;2022-12-29T13:35:05;11.20;;;3.20;;
43580;SDS011;29175;51.030;4.606;2022-12-29T13:38:14;11.88;;;3.50;;
43580;SDS011;29175;51.030;4.606;2022-12-29T13:41:06;18.85;;;3.72;;
43580;SDS011;29175;51.030;4.606;2022-12-29T13:43:37;14.75;;;3.65;;
43580;SDS011;29175;51.030;4.606;2022-12-29T13:46:16;12.90;;;3.23;;
43580;SDS011;29175;51.030;4.606;2022-12-29T13:49:06;11.77;;;3.20;;
43580;SDS011;29175;51.030;4.606;2022-12-29T13:51:37;11.40;;;3.05;;
43580;SDS011;29175;51.030;4.606;2022-12-29T13:57:35;11.75;;;3.00;;
43580;SDS011;29175;51.030;4.606;2022-12-29T14:00:22;6.07;;;2.47;;
43580;SDS011;29175;51.030;4.606;2022-12-29T14:05:37;16.83;;;2.97;;
43580;SDS011;29175;51.030;4.606;2022-12-29T14:08:03;11.57;;;2.72;;
43580;SDS011;29175;51.030;4.606;2022-12-29T14:15:42;13.27;;;4.15;;
43580;SDS011;29175;51.030;4.606;2022-12-29T14:18:22;11.13;;;3.80;;
43580;SDS011;29175;51.030;4.606;2022-12-29T14:23:41;25.27;;;4.43;;
43580;SDS011;29175;51.030;4.606;2022-12-29T14:26:10;14.73;;;3.53;;
43580;SDS011;29175;51.030;4.606;2022-12-29T14:28:44;21.25;;;3.90;;
43580;SDS011;29175;51.030;4.606;2022-12-29T14:33:40;17.20;;;4.22;;
43580;SDS011;29175;51.030;4.606;2022-12-29T14:36:32;11.60;;;2.92;;
43580;SDS011;29175;51.030;4.606;2022-12-29T14:39:04;14.73;;;3.03;;
43580;SDS011;29175;51.030;4.606;2022-12-29T14:41:59;11.40;;;3.30;;
43580;SDS011;29175;51.030;4.606;2022-12-29T14:44:49;4.88;;;2.17;;
43580;SDS011;29175;51.030;4.606;2022-12-29T14:49:55;11.98;;;1.80;;
43580;SDS011;29175;51.030;4.606;2022-12-29T14:52:28;5.93;;;2.05;;
43580;SDS011;29175;51.030;4.606;2022-12-29T14:59:55;7.32;;;2.03;;
43580;SDS011;29175;51.030;4.606;2022-12-29T15:02:32;6.25;;;2.17;;
43580;SDS011;29175;51.030;4.606;2022-12-29T15:05:03;19.83;;;3.67;;
43580;SDS011;29175;51.030;4.606;2022-12-29T15:07:31;13.15;;;3.38;;
43580;SDS011;29175;51.030;4.606;2022-12-29T15:10:03;8.50;;;2.90;;
43580;SDS011;29175;51.030;4.606;2022-12-29T15:21:05;10.70;;;2.22;;
43580;SDS011;29175;51.030;4.606;2022-12-29T15:23:32;9.43;;;2.63;;
43580;SDS011;29175;51.030;4.606;2022-12-29T15:31:03;6.85;;;2.20;;
43580;SDS011;29175;51.030;4.606;2022-12-29T15:33:31;8.50;;;2.60;;
43580;SDS011;29175;51.030;4.606;2022-12-29T15:36:08;12.57;;;3.25;;
43580;SDS011;29175;51.030;4.606;2022-12-29T15:38:53;12.00;;;3.17;;
43580;SDS011;29175;51.030;4.606;2022-12-29T15:44:38;11.13;;;2.80;;
43580;SDS011;29175;51.030;4.606;2022-12-29T15:49:45;11.85;;;3.03;;
43580;SDS011;29175;51.030;4.606;2022-12-29T15:52:18;18.88;;;3.10;;
43580;SDS011;29175;51.030;4.606;2022-12-29T15:54:46;14.02;;;3.90;;
43580;SDS011;29175;51.030;4.606;2022-12-29T15:57:42;19.67;;;3.40;;
43580;SDS011;29175;51.030;4.606;2022-12-29T16:00:21;18.55;;;3.47;;
43580;SDS011;29175;51.030;4.606;2022-12-29T16:02:58;13.98;;;3.58;;
43580;SDS011;29175;51.030;4.606;2022-12-29T16:05:37;15.68;;;4.05;;
43580;SDS011;29175;51.030;4.606;2022-12-29T16:08:15;15.68;;;3.22;;
43580;SDS011;29175;51.030;4.606;2022-12-29T16:11:03;11.07;;;4.03;;
43580;SDS011;29175;51.030;4.606;2022-12-29T16:13:50;18.77;;;3.55;;
43580;SDS011;29175;51.030;4.606;2022-12-29T16:16:28;13.85;;;3.72;;
43580;SDS011;29175;51.030;4.606;2022-12-29T16:19:01;15.55;;;3.78;;
43580;SDS011;29175;51.030;4.606;2022-12-29T16:21:34;12.02;;;3.80;;
43580;SDS011;29175;51.030;4.606;2022-12-29T16:24:09;14.05;;;3.90;;
43580;SDS011;29175;51.030;4.606;2022-12-29T16:26:44;17.75;;;3.95;;
43580;SDS011;29175;51.030;4.606;2022-12-29T16:29:22;10.35;;;3.15;;
43580;SDS011;29175;51.030;4.606;2022-12-29T16:31:52;12.10;;;2.92;;
43580;SDS011;29175;51.030;4.606;2022-12-29T16:37:27;20.83;;;3.35;;
43580;SDS011;29175;51.030;4.606;2022-12-29T16:39:56;11.93;;;3.35;;
43580;SDS011;29175;51.030;4.606;2022-12-29T16:48:30;26.80;;;4.05;;
43580;SDS011;29175;51.030;4.606;2022-12-29T16:50:42;14.63;;;4.10;;
43580;SDS011;29175;51.030;4.606;2022-12-29T16:53:18;17.27;;;4.00;;
43580;SDS011;29175;51.030;4.606;2022-12-29T16:55:47;15.68;;;4.05;;
43580;SDS011;29175;51.030;4.606;2022-12-29T16:58:18;20.80;;;5.30;;
43580;SDS011;29175;51.030;4.606;2022-12-29T17:00:52;25.73;;;4.97;;
43580;SDS011;29175;51.030;4.606;2022-12-29T17:03:23;23.27;;;5.03;;
43580;SDS011;29175;51.030;4.606;2022-12-29T17:05:53;22.30;;;4.70;;
43580;SDS011;29175;51.030;4.606;2022-12-29T17:08:20;21.30;;;5.47;;
43580;SDS011;29175;51.030;4.606;2022-12-29T17:10:51;18.58;;;4.82;;
43580;SDS011;29175;51.030;4.606;2022-12-29T17:13:38;21.92;;;5.03;;
43580;SDS011;29175;51.030;4.606;2022-12-29T17:16:04;23.67;;;4.80;;
43580;SDS011;29175;51.030;4.606;2022-12-29T17:18:32;17.73;;;4.75;;
43580;SDS011;29175;51.030;4.606;2022-12-29T17:20:59;20.95;;;5.05;;
43580;SDS011;29175;51.030;4.606;2022-12-29T17:23:25;21.23;;;4.85;;
43580;SDS011;29175;51.030;4.606;2022-12-29T17:25:50;17.05;;;4.30;;
43580;SDS011;29175;51.030;4.606;2022-12-29T17:28:22;23.45;;;5.50;;
43580;SDS011;29175;51.030;4.606;2022-12-29T17:30:48;25.83;;;4.70;;
43580;SDS011;29175;51.030;4.606;2022-12-29T17:33:19;14.63;;;5.20;;
43580;SDS011;29175;51.030;4.606;2022-12-29T17:35:45;21.45;;;4.78;;
43580;SDS011;29175;51.030;4.606;2022-12-29T17:41:10;26.48;;;6.05;;
43580;SDS011;29175;51.030;4.606;2022-12-29T17:43:38;18.90;;;5.20;;
43580;SDS011;29175;51.030;4.606;2022-12-29T17:46:05;29.05;;;5.25;;
43580;SDS011;29175;51.030;4.606;2022-12-29T17:48:32;20.70;;;5.07;;
43580;SDS011;29175;51.030;4.606;2022-12-29T17:50:58;19.40;;;6.35;;
43580;SDS011;29175;51.030;4.606;2022-12-29T17:53:27;20.85;;;5.90;;